Time;durP1;ratioP1;P1;durP2;ratioP2;P2;SDS_P1;SDS_P2;PMS_P1;PMS_P2;Temp;Humidity;BMP_temperature;BMP_pressure;BME280_temperature;BME280_humidity;BME280_pressure;Samples;Min_cycle;Max_cycle;Signal;HPM_P1;HPM_P2
2022/09/10 00:01:46;;;;;;;1.30;1.17;;;16.90;98.00;;;;;;5013698;28;20502;-72
2022/09/10 00:04:16;;;;;;;1.20;1.20;;;16.70;98.00;;;;;;5013357;28;20466;-72
2022/09/10 00:06:44;;;;;;;1.70;1.50;;;16.70;98.00;;;;;;4996288;28;20456;-72
2022/09/10 00:09:12;;;;;;;1.30;1.10;;;16.70;98.00;;;;;;5013364;28;20458;-72
2022/09/10 00:11:40;;;;;;;1.57;1.30;;;16.60;98.00;;;;;;5013702;28;20456;-72
2022/09/10 00:14:12;;;;;;;1.20;1.13;;;16.60;98.00;;;;;;5013498;28;20456;-72
2022/09/10 00:16:39;;;;;;;1.70;1.40;;;16.30;98.00;;;;;;5013709;28;20832;-72
2022/09/10 00:19:08;;;;;;;9.30;1.47;;;16.30;98.00;;;;;;5013289;28;20467;-72
2022/09/10 00:21:35;;;;;;;1.97;1.47;;;16.30;98.00;;;;;;5013255;28;20490;-72
2022/09/10 00:24:03;;;;;;;1.30;1.20;;;16.30;98.00;;;;;;5013447;28;20521;-72
2022/09/10 00:26:34;;;;;;;1.50;1.30;;;16.30;98.00;;;;;;5013149;28;20885;-72
2022/09/10 00:29:04;;;;;;;1.30;1.17;;;16.40;98.00;;;;;;5012962;28;20478;-72
2022/09/10 00:31:35;;;;;;;1.30;1.17;;;16.30;98.00;;;;;;5011995;28;20559;-72
2022/09/10 00:34:04;;;;;;;2.20;1.30;;;16.20;98.00;;;;;;4993950;28;20472;-73
2022/09/10 00:36:35;;;;;;;1.30;1.10;;;16.40;98.00;;;;;;5012590;28;20969;-72
2022/09/10 00:39:05;;;;;;;2.50;1.60;;;16.20;98.00;;;;;;5012744;28;20522;-72
2022/09/10 00:41:34;;;;;;;1.40;1.20;;;16.10;98.00;;;;;;4994908;28;21069;-72
2022/09/10 00:44:02;;;;;;;2.13;1.50;;;16.10;98.00;;;;;;5012910;28;20459;-72
2022/09/10 00:46:35;;;;;;;2.00;1.50;;;16.10;98.00;;;;;;5012576;28;20463;-72
2022/09/10 00:49:06;;;;;;;1.50;1.30;;;16.20;98.00;;;;;;5012668;28;20455;-72
2022/09/10 00:51:36;;;;;;;1.30;1.20;;;16.10;98.00;;;;;;5012490;28;20954;-72
2022/09/10 00:54:05;;;;;;;1.50;1.30;;;16.00;98.00;;;;;;5012534;28;20466;-73
2022/09/10 00:56:33;;;;;;;1.20;1.10;;;16.00;98.00;;;;;;5012403;28;20518;-72
2022/09/10 00:59:01;;;;;;;2.20;1.27;;;16.00;98.00;;;;;;5012492;28;20460;-72
2022/09/10 01:01:29;;;;;;;1.40;1.20;;;16.00;98.00;;;;;;5012346;28;20487;-72
2022/09/10 01:03:57;;;;;;;1.77;1.20;;;16.00;98.00;;;;;;4995045;28;20985;-72
2022/09/10 01:06:24;;;;;;;1.30;1.20;;;16.10;98.00;;;;;;5012324;28;20944;-72
2022/09/10 01:08:53;;;;;;;1.67;1.27;;;16.30;98.00;;;;;;5012433;28;20448;-72
2022/09/10 01:11:33;;;;;;;1.47;1.20;;;16.10;98.00;;;;;;5012434;28;20486;-72
2022/09/10 01:14:23;;;;;;;8.13;1.30;;;16.20;98.00;;;;;;5012381;28;20470;-72
2022/09/10 01:16:59;;;;;;;1.23;1.20;;;16.20;98.00;;;;;;5012566;28;20462;-72
2022/09/10 01:19:55;;;;;;;1.40;1.27;;;16.30;98.00;;;;;;5012555;28;20463;-72
2022/09/10 01:22:44;;;;;;;1.50;1.30;;;16.20;98.00;;;;;;5012405;28;20459;-72
2022/09/10 01:25:21;;;;;;;1.30;1.00;;;16.40;98.00;;;;;;4994821;28;20474;-72
2022/09/10 01:27:51;;;;;;;1.30;1.07;;;16.40;98.00;;;;;;5011960;28;20462;-72
2022/09/10 01:30:21;;;;;;;1.63;1.30;;;16.50;98.00;;;;;;5011834;28;20471;-72
2022/09/10 01:33:04;;;;;;;1.50;1.30;;;16.60;98.00;;;;;;5011313;28;20472;-72
2022/09/10 01:35:37;;;;;;;1.50;1.30;;;16.60;98.00;;;;;;5011439;28;20529;-72
2022/09/10 01:38:11;;;;;;;1.40;1.20;;;16.50;98.00;;;;;;5011273;28;20470;-72
2022/09/10 01:40:39;;;;;;;1.50;1.20;;;16.50;98.00;;;;;;5011449;28;20482;-72
2022/09/10 01:43:09;;;;;;;1.20;1.10;;;16.50;98.00;;;;;;5012024;28;20474;-72
2022/09/10 01:45:47;;;;;;;1.20;1.10;;;16.30;98.00;;;;;;5015509;28;20455;-72
2022/09/10 01:48:29;;;;;;;1.20;1.20;;;16.20;98.00;;;;;;4998513;28;20517;-72
2022/09/10 01:51:03;;;;;;;3.30;1.40;;;16.10;98.00;;;;;;5015992;28;20455;-72
2022/09/10 01:53:47;;;;;;;1.47;1.30;;;16.10;98.00;;;;;;5015662;28;20466;-72
2022/09/10 01:56:25;;;;;;;1.37;1.33;;;16.20;98.00;;;;;;5015779;28;20455;-72
2022/09/10 01:59:03;;;;;;;1.43;1.13;;;16.10;98.00;;;;;;5015750;28;20463;-72
2022/09/10 02:01:36;;;;;;;1.50;1.30;;;15.90;98.00;;;;;;5015832;28;20572;-72
2022/09/10 02:04:08;;;;;;;2.07;1.30;;;15.90;98.00;;;;;;5015700;28;20490;-72
2022/09/10 02:06:38;;;;;;;1.80;1.20;;;15.90;98.00;;;;;;5015705;28;20467;-72
2022/09/10 02:09:09;;;;;;;1.40;1.20;;;15.90;98.00;;;;;;5015545;28;20466;-72
2022/09/10 02:11:46;;;;;;;2.63;1.27;;;15.90;98.00;;;;;;4982304;28;20466;-72
2022/09/10 02:14:15;;;;;;;1.30;1.20;;;15.80;98.00;;;;;;4998610;28;20817;-72
2022/09/10 02:16:47;;;;;;;1.30;1.20;;;15.90;98.00;;;;;;5015486;28;20459;-72
2022/09/10 02:19:17;;;;;;;1.83;1.20;;;16.20;98.00;;;;;;5015661;28;20934;-72
2022/09/10 02:21:45;;;;;;;1.30;1.20;;;16.20;98.00;;;;;;5015691;28;20859;-72
2022/09/10 02:24:13;;;;;;;1.43;1.33;;;16.00;98.00;;;;;;5015582;28;20474;-72
2022/09/10 02:26:44;;;;;;;1.50;1.17;;;15.80;98.00;;;;;;5015071;28;20448;-72
2022/09/10 02:29:14;;;;;;;1.47;1.30;;;15.70;98.00;;;;;;5015166;28;20471;-72
2022/09/10 02:31:42;;;;;;;2.03;1.60;;;15.70;98.00;;;;;;5015087;28;20480;-72
2022/09/10 02:34:09;;;;;;;1.50;1.27;;;15.70;98.00;;;;;;5014635;28;21114;-72
2022/09/10 02:36:37;;;;;;;1.30;1.00;;;15.70;98.00;;;;;;5015047;28;20460;-72
2022/09/10 02:39:06;;;;;;;1.70;1.23;;;15.90;98.00;;;;;;5014681;28;20467;-72
2022/09/10 02:41:35;;;;;;;1.30;1.20;;;16.00;98.00;;;;;;5014887;28;20510;-72
2022/09/10 02:44:04;;;;;;;2.10;1.43;;;15.80;98.00;;;;;;4997216;28;20521;-73
2022/09/10 02:46:32;;;;;;;1.23;1.10;;;15.70;98.00;;;;;;5014877;28;20463;-73
2022/09/10 02:48:59;;;;;;;9.00;1.77;;;15.60;98.00;;;;;;5014917;28;20845;-72
2022/09/10 02:51:27;;;;;;;1.53;1.10;;;15.70;98.00;;;;;;5014724;28;20460;-72
2022/09/10 02:53:54;;;;;;;1.73;1.10;;;15.90;98.00;;;;;;4997392;28;20597;-72
2022/09/10 02:56:21;;;;;;;1.40;1.30;;;15.90;98.00;;;;;;5013896;28;20514;-72
2022/09/10 02:58:50;;;;;;;1.53;1.30;;;15.80;98.00;;;;;;5014590;28;20459;-72
2022/09/10 03:01:19;;;;;;;1.60;1.30;;;15.70;98.00;;;;;;4996914;28;20513;-72
2022/09/10 03:03:53;;;;;;;2.20;1.20;;;15.70;98.00;;;;;;4997083;28;20456;-72
2022/09/10 03:06:21;;;;;;;1.47;1.17;;;15.70;98.00;;;;;;5014807;28;20487;-72
2022/09/10 03:08:48;;;;;;;1.20;1.10;;;15.60;98.00;;;;;;5014259;28;20503;-72
2022/09/10 03:11:16;;;;;;;1.40;1.10;;;15.50;98.00;;;;;;5014397;28;20467;-72
2022/09/10 03:13:44;;;;;;;1.27;1.20;;;15.60;98.00;;;;;;4997324;28;20474;-72
2022/09/10 03:16:21;;;;;;;1.33;1.20;;;15.70;98.00;;;;;;5014316;28;20531;-72
2022/09/10 03:18:50;;;;;;;1.40;1.20;;;15.70;98.00;;;;;;5014563;28;20869;-72
2022/09/10 03:21:20;;;;;;;1.30;1.20;;;15.80;98.00;;;;;;5014073;28;20487;-72
2022/09/10 03:23:48;;;;;;;1.30;1.10;;;16.00;98.00;;;;;;5014334;28;20981;-72
2022/09/10 03:26:17;;;;;;;1.80;1.23;;;15.90;98.00;;;;;;4996507;28;20555;-72
2022/09/10 03:28:45;;;;;;;1.30;1.13;;;16.00;98.00;;;;;;5014192;28;20467;-72
2022/09/10 03:31:13;;;;;;;1.40;1.20;;;16.00;98.00;;;;;;5013729;28;20494;-72
2022/09/10 03:33:41;;;;;;;1.57;1.40;;;16.20;98.00;;;;;;5014158;28;20686;-72
2022/09/10 03:36:12;;;;;;;1.60;1.23;;;16.20;98.00;;;;;;5014029;28;20455;-72
2022/09/10 03:38:39;;;;;;;1.53;1.27;;;16.10;98.00;;;;;;5013790;28;20562;-72
2022/09/10 03:41:06;;;;;;;1.50;1.23;;;16.10;98.00;;;;;;5013852;28;20480;-72
2022/09/10 03:43:34;;;;;;;1.30;1.13;;;16.20;98.00;;;;;;4996528;28;20463;-72
2022/09/10 03:46:01;;;;;;;1.57;1.07;;;16.10;98.00;;;;;;5013684;28;20463;-72
2022/09/10 03:48:28;;;;;;;1.20;1.10;;;16.20;98.00;;;;;;5013601;28;20463;-72
2022/09/10 03:50:56;;;;;;;1.53;1.20;;;16.20;98.00;;;;;;4996645;28;20459;-72
2022/09/10 03:53:25;;;;;;;1.30;1.20;;;16.10;98.00;;;;;;5013720;28;20462;-72
2022/09/10 03:55:54;;;;;;;1.60;1.30;;;16.20;98.00;;;;;;5013571;28;20467;-72
2022/09/10 03:58:21;;;;;;;1.40;1.30;;;16.20;98.00;;;;;;5013341;28;20448;-72
2022/09/10 04:00:49;;;;;;;1.37;1.20;;;16.00;98.00;;;;;;4996149;28;20953;-72
2022/09/10 04:03:16;;;;;;;1.30;1.20;;;15.90;98.00;;;;;;5013294;28;20785;-72
2022/09/10 04:05:43;;;;;;;2.03;1.27;;;15.80;98.00;;;;;;5013332;28;20455;-72
2022/09/10 04:08:11;;;;;;;1.40;1.30;;;16.00;98.00;;;;;;5013462;28;20970;-71
2022/09/10 04:10:40;;;;;;;1.50;1.30;;;15.90;98.00;;;;;;5013579;28;20814;-72
2022/09/10 04:13:08;;;;;;;1.40;1.30;;;15.80;98.00;;;;;;5013241;28;20448;-72
2022/09/10 04:15:36;;;;;;;1.20;1.10;;;15.80;98.00;;;;;;4996102;28;20860;-72
2022/09/10 04:18:03;;;;;;;1.43;1.30;;;15.80;98.00;;;;;;5013520;28;20489;-72
2022/09/10 04:20:30;;;;;;;1.20;1.13;;;15.90;98.00;;;;;;5013185;28;20510;-72
2022/09/10 04:22:57;;;;;;;1.30;1.27;;;16.00;98.00;;;;;;5012911;28;20523;-72
2022/09/10 04:25:25;;;;;;;3.37;1.40;;;16.00;98.00;;;;;;5013034;28;20456;-72
2022/09/10 04:27:53;;;;;;;2.30;1.40;;;15.90;98.00;;;;;;5012924;28;20474;-72
2022/09/10 04:30:20;;;;;;;11.93;1.60;;;15.80;98.00;;;;;;5012683;28;20464;-72
2022/09/10 04:32:48;;;;;;;1.27;1.20;;;15.80;98.00;;;;;;5012660;28;20466;-72
2022/09/10 04:35:19;;;;;;;1.63;1.33;;;15.70;98.00;;;;;;5012667;28;20448;-72
2022/09/10 04:37:46;;;;;;;1.20;1.07;;;15.70;98.00;;;;;;5012473;28;20460;-72
2022/09/10 04:40:13;;;;;;;1.63;1.30;;;15.80;98.00;;;;;;5012746;28;20459;-72
2022/09/10 04:42:40;;;;;;;1.43;1.20;;;15.70;98.00;;;;;;5012655;28;20483;-72
2022/09/10 04:45:09;;;;;;;1.30;1.10;;;15.80;98.00;;;;;;4979265;28;20487;-72
2022/09/10 04:47:37;;;;;;;1.40;1.10;;;15.90;98.00;;;;;;5012746;28;20459;-71
2022/09/10 04:50:05;;;;;;;1.20;1.03;;;15.90;98.00;;;;;;4995152;28;20543;-72
2022/09/10 04:52:34;;;;;;;1.40;1.20;;;15.90;98.00;;;;;;5012768;28;20464;-72
2022/09/10 04:55:01;;;;;;;1.30;1.13;;;15.80;98.00;;;;;;5012519;28;20456;-72
2022/09/10 04:57:28;;;;;;;2.47;1.50;;;15.80;98.00;;;;;;5012802;28;20487;-72
2022/09/10 04:59:55;;;;;;;2.50;1.30;;;15.80;98.00;;;;;;5012135;28;20470;-72
2022/09/10 05:02:24;;;;;;;1.50;1.10;;;15.80;98.00;;;;;;5012403;28;20493;-72
2022/09/10 05:04:51;;;;;;;1.60;1.30;;;15.80;98.00;;;;;;5012519;28;20447;-72
2022/09/10 05:07:18;;;;;;;1.20;1.10;;;15.80;98.00;;;;;;4995018;28;20467;-72
2022/09/10 05:09:46;;;;;;;1.50;1.20;;;15.80;98.00;;;;;;5012591;28;20465;-72
2022/09/10 05:12:18;;;;;;;5.63;1.30;;;15.70;98.00;;;;;;5012527;28;20460;-72
2022/09/10 05:14:45;;;;;;;1.90;1.07;;;15.70;98.00;;;;;;5012499;28;20490;-72
2022/09/10 05:17:12;;;;;;;1.90;1.27;;;15.60;98.00;;;;;;5012461;28;20462;-71
2022/09/10 05:19:41;;;;;;;1.53;1.47;;;15.60;98.00;;;;;;5011784;28;20456;-72
2022/09/10 05:22:09;;;;;;;1.53;1.13;;;15.80;98.00;;;;;;5012095;28;20486;-72
2022/09/10 05:24:36;;;;;;;1.30;1.10;;;15.80;98.00;;;;;;5012209;28;20521;-72
2022/09/10 05:27:03;;;;;;;1.87;1.20;;;15.70;98.00;;;;;;4994641;28;20460;-72
2022/09/10 05:29:30;;;;;;;1.50;1.20;;;15.80;98.00;;;;;;5012059;28;20467;-72
2022/09/10 05:31:57;;;;;;;1.20;1.10;;;15.70;98.00;;;;;;4994577;28;20467;-71
2022/09/10 05:34:24;;;;;;;1.30;1.10;;;15.80;98.00;;;;;;5011924;28;20940;-73
2022/09/10 05:36:53;;;;;;;1.20;1.00;;;15.90;98.00;;;;;;5012050;28;20499;-72
2022/09/10 05:39:21;;;;;;;1.40;1.30;;;15.90;98.00;;;;;;5011879;28;20448;-72
2022/09/10 05:41:48;;;;;;;1.30;1.20;;;15.90;98.00;;;;;;4994545;28;20992;-72
2022/09/10 05:44:16;;;;;;;2.03;1.30;;;15.90;98.00;;;;;;5011787;28;20455;-72
2022/09/10 05:46:43;;;;;;;1.30;1.20;;;15.90;98.00;;;;;;5011933;28;20453;-72
2022/09/10 05:49:11;;;;;;;1.47;1.20;;;15.90;98.00;;;;;;5011849;28;20534;-72
2022/09/10 05:51:39;;;;;;;1.30;1.20;;;15.80;98.00;;;;;;4994915;28;20547;-71
2022/09/10 05:54:07;;;;;;;1.30;1.20;;;15.80;98.00;;;;;;5011880;28;20459;-72
2022/09/10 05:56:35;;;;;;;1.87;1.40;;;15.80;98.00;;;;;;5012021;28;20966;-72
2022/09/10 05:59:04;;;;;;;1.23;1.20;;;15.90;98.00;;;;;;5011907;28;20469;-72
2022/09/10 06:01:34;;;;;;;1.87;1.20;;;16.00;98.00;;;;;;5012007;28;20455;-72
2022/09/10 06:04:02;;;;;;;1.20;1.10;;;16.00;98.00;;;;;;5011903;28;20491;-72
2022/09/10 06:06:29;;;;;;;2.63;1.30;;;16.10;98.00;;;;;;5012105;28;20812;-72
2022/09/10 06:08:57;;;;;;;1.70;1.30;;;16.10;98.00;;;;;;5011909;28;20455;-72
2022/09/10 06:11:25;;;;;;;1.20;1.20;;;16.20;98.00;;;;;;5012061;28;20831;-72
2022/09/10 06:13:53;;;;;;;1.30;1.20;;;16.20;98.00;;;;;;5011967;28;20472;-72
2022/09/10 06:16:20;;;;;;;1.20;1.03;;;16.20;98.00;;;;;;5011385;28;20671;-72
2022/09/10 06:18:49;;;;;;;1.80;1.40;;;16.20;98.00;;;;;;4994283;28;20448;-72
2022/09/10 06:21:17;;;;;;;1.30;1.20;;;16.20;98.00;;;;;;4994195;28;20456;-72
2022/09/10 06:23:45;;;;;;;1.20;1.10;;;16.30;98.00;;;;;;4978251;28;20494;-72
2022/09/10 06:26:15;;;;;;;4.10;1.33;;;16.20;98.00;;;;;;5011599;28;20833;-72
2022/09/10 06:28:44;;;;;;;1.93;1.50;;;16.30;98.00;;;;;;4994355;28;20464;-71
2022/09/10 06:31:15;;;;;;;2.43;1.67;;;16.20;98.00;;;;;;5013135;28;20546;-72
2022/09/10 06:33:43;;;;;;;1.20;1.10;;;16.30;98.00;;;;;;5014562;28;20515;-72
2022/09/10 06:36:11;;;;;;;1.30;1.10;;;16.40;98.00;;;;;;4996687;28;20463;-71
2022/09/10 06:38:38;;;;;;;1.93;1.50;;;16.40;98.00;;;;;;5014054;28;20463;-71
2022/09/10 06:41:07;;;;;;;1.20;1.10;;;16.30;98.00;;;;;;5014437;28;20459;-71
2022/09/10 06:43:36;;;;;;;1.50;1.20;;;16.30;98.00;;;;;;5014047;28;20493;-71
2022/09/10 06:46:09;;;;;;;1.70;1.30;;;16.30;98.00;;;;;;5013946;28;20491;-72
2022/09/10 06:48:41;;;;;;;2.67;1.40;;;16.30;98.00;;;;;;5014170;28;20459;-72
2022/09/10 06:51:11;;;;;;;3.40;1.20;;;16.40;98.00;;;;;;5013861;28;20471;-72
2022/09/10 06:53:39;;;;;;;1.30;1.30;;;16.50;98.00;;;;;;5013774;28;20464;-72
2022/09/10 06:56:09;;;;;;;1.73;1.20;;;16.60;98.00;;;;;;5014058;28;20447;-72
2022/09/10 06:58:37;;;;;;;1.30;1.00;;;16.70;98.00;;;;;;5013719;28;20455;-72
2022/09/10 07:01:11;;;;;;;1.47;1.20;;;16.60;98.00;;;;;;5013806;28;20459;-70
2022/09/10 07:03:38;;;;;;;1.30;1.10;;;16.70;98.00;;;;;;5013347;28;20906;-71
2022/09/10 07:06:06;;;;;;;1.70;1.30;;;16.60;98.00;;;;;;5013674;28;20953;-71
2022/09/10 07:08:34;;;;;;;1.50;1.30;;;16.70;98.00;;;;;;5013914;28;20467;-71
2022/09/10 07:11:03;;;;;;;1.20;1.10;;;16.70;98.00;;;;;;5013787;28;20466;-71
2022/09/10 07:13:30;;;;;;;1.40;1.27;;;16.60;98.00;;;;;;5013492;28;20447;-71
2022/09/10 07:15:58;;;;;;;1.20;1.00;;;16.50;98.00;;;;;;4996202;28;20464;-71
2022/09/10 07:18:29;;;;;;;1.60;1.10;;;16.50;98.00;;;;;;5013549;28;21005;-71
2022/09/10 07:21:07;;;;;;;1.40;1.20;;;16.60;98.00;;;;;;5013515;28;20470;-73
2022/09/10 07:23:34;;;;;;;1.90;1.30;;;16.60;98.00;;;;;;5013378;28;20486;-71
2022/09/10 07:26:04;;;;;;;1.70;1.40;;;16.70;98.00;;;;;;5013262;28;20529;-71
2022/09/10 07:28:31;;;;;;;1.27;1.17;;;16.80;98.00;;;;;;5013025;28;20459;-71
2022/09/10 07:30:59;;;;;;;1.30;1.20;;;16.90;98.00;;;;;;5013148;28;20494;-71
2022/09/10 07:33:27;;;;;;;1.40;1.23;;;16.90;98.00;;;;;;5013155;28;20495;-71
2022/09/10 07:35:54;;;;;;;1.40;1.10;;;16.90;98.00;;;;;;5013191;28;20554;-72
2022/09/10 07:38:22;;;;;;;1.30;1.13;;;17.00;98.00;;;;;;5012879;28;20459;-71
2022/09/10 07:40:48;;;;;;;1.20;1.20;;;16.80;98.00;;;;;;5012783;28;20974;-70
2022/09/10 07:43:16;;;;;;;1.87;1.27;;;16.70;98.00;;;;;;5030231;28;20494;-72
2022/09/10 07:45:43;;;;;;;3.93;1.10;;;16.80;98.00;;;;;;5045515;28;20968;-72
2022/09/10 07:48:12;;;;;;;1.40;1.00;;;16.90;98.00;;;;;;5044708;28;20461;-71
2022/09/10 07:50:40;;;;;;;1.70;1.27;;;16.90;98.00;;;;;;5039171;28;20532;-72
2022/09/10 07:53:08;;;;;;;1.33;1.27;;;17.00;98.00;;;;;;5036506;28;20454;-71
2022/09/10 07:55:35;;;;;;;1.20;1.10;;;17.00;98.00;;;;;;5014755;28;20455;-71
2022/09/10 07:58:02;;;;;;;1.40;1.30;;;17.00;98.00;;;;;;5032312;28;20521;-72
2022/09/10 08:00:29;;;;;;;1.50;1.23;;;17.00;98.00;;;;;;5032564;28;20466;-72
2022/09/10 08:02:56;;;;;;;1.40;1.37;;;17.00;98.00;;;;;;5014710;28;20486;-72
2022/09/10 08:05:23;;;;;;;1.47;1.20;;;16.90;98.00;;;;;;5032272;28;20459;-71
2022/09/10 08:07:54;;;;;;;1.67;1.17;;;16.90;98.00;;;;;;5032424;28;20455;-72
2022/09/10 08:10:21;;;;;;;1.57;1.20;;;16.90;98.00;;;;;;5032259;28;20458;-71
2022/09/10 08:12:49;;;;;;;1.50;1.17;;;16.90;98.00;;;;;;5032242;28;20458;-70
2022/09/10 08:15:16;;;;;;;1.23;1.20;;;16.90;98.00;;;;;;5033051;28;20467;-72
2022/09/10 08:17:43;;;;;;;1.20;1.10;;;17.20;98.00;;;;;;5032998;28;20459;-72
2022/09/10 08:20:12;;;;;;;1.40;1.17;;;17.20;98.00;;;;;;5032008;28;20467;-71
2022/09/10 08:22:39;;;;;;;1.40;1.17;;;17.20;98.00;;;;;;5032198;28;20573;-72
2022/09/10 08:25:08;;;;;;;1.20;1.10;;;17.30;98.00;;;;;;5032523;28;20545;-68
2022/09/10 08:27:36;;;;;;;1.63;1.23;;;17.40;98.00;;;;;;5031799;28;20844;-72
2022/09/10 08:30:03;;;;;;;1.40;1.10;;;17.50;98.00;;;;;;5031558;28;20462;-71
2022/09/10 08:32:38;;;;;;;1.37;1.30;;;17.60;98.00;;;;;;5031703;28;20471;-72
2022/09/10 08:35:05;;;;;;;1.20;1.10;;;17.50;98.00;;;;;;5031764;28;20454;-72
2022/09/10 08:37:33;;;;;;;1.20;1.10;;;17.60;98.00;;;;;;5031653;28;20851;-71
2022/09/10 08:40:00;;;;;;;1.30;1.30;;;17.60;98.00;;;;;;5028796;28;20983;-72
2022/09/10 08:42:34;;;;;;;1.80;1.20;;;17.80;98.00;;;;;;5045856;28;20480;-72
2022/09/10 08:45:09;;;;;;;1.53;1.23;;;17.80;98.00;;;;;;5012328;28;20454;-72
2022/09/10 08:47:48;;;;;;;1.40;1.20;;;17.90;98.00;;;;;;5050572;28;20461;-72
2022/09/10 08:50:24;;;;;;;1.40;1.20;;;17.90;98.00;;;;;;5051522;28;20465;-67
2022/09/10 08:52:56;;;;;;;1.30;1.30;;;18.00;98.00;;;;;;5050863;28;20447;-76
2022/09/10 08:55:27;;;;;;;1.40;1.10;;;18.20;98.00;;;;;;5051736;28;20818;-76
2022/09/10 08:58:00;;;;;;;1.37;1.30;;;18.30;98.00;;;;;;5051394;28;20457;-76
2022/09/10 09:00:33;;;;;;;1.30;1.13;;;18.40;98.00;;;;;;5051311;28;20465;-76
2022/09/10 09:03:05;;;;;;;1.30;1.20;;;18.50;98.00;;;;;;5051364;28;20485;-80
2022/09/10 09:05:44;;;;;;;2.37;1.30;;;18.60;98.00;;;;;;5034230;28;20458;-74
2022/09/10 09:08:13;;;;;;;1.20;1.10;;;18.70;98.00;;;;;;5051261;28;20454;-74
2022/09/10 09:10:50;;;;;;;1.20;1.00;;;18.80;98.00;;;;;;5051454;28;20560;-76
2022/09/10 09:13:47;;;;;;;2.27;1.13;;;18.70;98.00;;;;;;5034502;28;20461;-77
2022/09/10 09:16:27;;;;;;;1.80;1.27;;;18.70;98.00;;;;;;5037852;28;20461;-75
2022/09/10 09:19:08;;;;;;;2.73;1.40;;;18.70;98.00;;;;;;5051161;28;20457;-77
2022/09/10 09:21:52;;;;;;;1.60;1.33;;;18.70;98.00;;;;;;5051213;28;20464;-77
2022/09/10 09:24:24;;;;;;;1.30;1.10;;;18.80;98.00;;;;;;5050939;28;20577;-75
2022/09/10 09:27:08;;;;;;;1.30;1.10;;;18.80;98.00;;;;;;5051071;28;20465;-74
2022/09/10 09:29:43;;;;;;;1.33;1.13;;;18.80;98.00;;;;;;5051050;28;20807;-73
2022/09/10 09:32:14;;;;;;;1.30;1.20;;;18.90;98.00;;;;;;5050838;28;20468;-77
2022/09/10 09:34:48;;;;;;;1.97;1.20;;;18.80;98.00;;;;;;5051116;28;20457;-74
2022/09/10 09:37:18;;;;;;;1.30;1.20;;;19.00;98.00;;;;;;5050866;28;20599;-77
2022/09/10 09:39:52;;;;;;;1.57;1.40;;;19.00;98.00;;;;;;5050586;28;20453;-75
2022/09/10 09:42:25;;;;;;;1.60;1.37;;;19.10;98.00;;;;;;5033010;28;20554;-76
2022/09/10 09:45:01;;;;;;;1.20;1.10;;;19.20;98.00;;;;;;5050849;28;20457;-76
2022/09/10 09:47:28;;;;;;;2.13;1.30;;;19.30;98.00;;;;;;5050789;28;20449;-77
2022/09/10 09:49:56;;;;;;;1.50;1.40;;;19.20;98.00;;;;;;5050878;28;20461;-76
2022/09/10 09:52:24;;;;;;;1.60;1.50;;;19.50;98.00;;;;;;5050790;28;20893;-78
2022/09/10 09:54:54;;;;;;;1.47;1.40;;;19.70;98.00;;;;;;5033216;28;20803;-79
2022/09/10 09:57:21;;;;;;;1.40;1.30;;;19.60;98.00;;;;;;5051028;28;20511;-77
2022/09/10 09:59:50;;;;;;;1.70;1.40;;;19.70;98.00;;;;;;5050759;28;20454;-74
2022/09/10 10:02:24;;;;;;;2.10;1.57;;;19.80;98.00;;;;;;5051392;28;20457;-72
2022/09/10 10:05:03;;;;;;;1.93;1.27;;;20.00;98.00;;;;;;5048079;28;21016;-73
2022/09/10 10:10:00;;;;;;;1.20;1.10;;;20.40;98.00;;;;;;5035617;28;20474;-74
2022/09/10 10:12:32;;;;;;;1.63;1.27;;;20.50;98.00;;;;;;5035652;28;20549;-74
2022/09/10 10:15:00;;;;;;;1.27;1.23;;;20.60;98.00;;;;;;5034755;28;20808;-76
2022/09/10 10:17:42;;;;;;;1.60;1.40;;;20.60;98.00;;;;;;5034823;28;20959;-77
2022/09/10 10:20:12;;;;;;;1.30;1.10;;;20.70;98.00;;;;;;5035212;28;20548;-76
2022/09/10 10:22:41;;;;;;;1.93;1.57;;;20.80;98.00;;;;;;5034668;28;20496;-76
2022/09/10 10:25:40;;;;;;;1.50;1.20;;;21.00;98.00;;;;;;5035150;28;20463;-76
2022/09/10 10:28:20;;;;;;;1.47;1.23;;;21.00;98.00;;;;;;5038082;28;20467;-75
2022/09/10 10:30:52;;;;;;;2.13;1.30;;;21.00;98.00;;;;;;5037896;28;20516;-76
2022/09/10 10:33:26;;;;;;;1.23;1.10;;;20.80;98.00;;;;;;5034882;28;20459;-76
2022/09/10 10:36:01;;;;;;;1.50;1.40;;;20.80;98.00;;;;;;5034916;28;20466;-76
2022/09/10 10:38:33;;;;;;;4.30;1.30;;;20.60;98.00;;;;;;5034725;28;20468;-77
2022/09/10 10:41:39;;;;;;;1.63;1.37;;;20.60;98.00;;;;;;5034943;28;20451;-76
2022/09/10 10:44:25;;;;;;;2.37;1.20;;;20.60;98.00;;;;;;5031596;28;20486;-76
2022/09/10 10:47:07;;;;;;;1.73;1.40;;;20.50;98.00;;;;;;5034545;28;20457;-77
2022/09/10 10:49:49;;;;;;;1.50;1.30;;;20.50;98.00;;;;;;5034603;28;20462;-78
2022/09/10 10:52:24;;;;;;;3.73;1.30;;;20.60;98.00;;;;;;5034524;28;20463;-77
2022/09/10 10:55:11;;;;;;;1.50;1.20;;;20.70;98.00;;;;;;5034502;28;20450;-77
2022/09/10 10:58:00;;;;;;;1.40;1.20;;;20.70;98.00;;;;;;5034787;28;20455;-75
2022/09/10 11:00:30;;;;;;;1.50;1.30;;;20.70;98.00;;;;;;5034641;28;20457;-76
2022/09/10 11:03:04;;;;;;;1.20;1.10;;;20.90;98.00;;;;;;5017590;28;20512;-75
2022/09/10 11:05:37;;;;;;;2.73;1.17;;;20.80;98.00;;;;;;5034287;28;20451;-75
2022/09/10 11:08:09;;;;;;;1.30;1.27;;;20.60;98.00;;;;;;5034274;28;20467;-77
2022/09/10 11:10:41;;;;;;;1.40;1.20;;;20.30;98.00;;;;;;5034508;28;20524;-75
2022/09/10 11:13:16;;;;;;;1.70;1.40;;;20.20;98.00;;;;;;5017022;28;20454;-67
2022/09/10 11:15:48;;;;;;;1.30;1.20;;;20.10;98.00;;;;;;5033342;28;21133;-68
2022/09/10 11:18:21;;;;;;;1.40;1.30;;;19.90;98.00;;;;;;5034038;28;20549;-78
2022/09/10 11:21:00;;;;;;;1.20;1.10;;;19.70;98.00;;;;;;5033938;28;20454;-77
2022/09/10 11:23:32;;;;;;;2.33;1.30;;;19.60;98.00;;;;;;5033272;28;20490;-81
2022/09/10 11:26:05;;;;;;;1.47;1.13;;;19.50;98.00;;;;;;5033279;28;20454;-80
2022/09/10 11:28:37;;;;;;;2.23;1.13;;;19.50;98.00;;;;;;5016354;28;20459;-68
2022/09/10 11:31:12;;;;;;;1.40;1.10;;;19.60;98.00;;;;;;5033178;28;20450;-67
2022/09/10 11:33:52;;;;;;;1.40;1.23;;;19.60;98.00;;;;;;5033166;28;20956;-75
2022/09/10 11:36:27;;;;;;;2.60;1.90;;;19.80;98.00;;;;;;5033805;28;20983;-78
2022/09/10 11:39:07;;;;;;;1.60;1.10;;;20.00;98.00;;;;;;5033207;28;20470;-77
2022/09/10 11:41:41;;;;;;;1.77;1.17;;;20.10;98.00;;;;;;5033310;28;20483;-73
2022/09/10 11:44:26;;;;;;;1.50;1.37;;;20.10;98.00;;;;;;5032842;28;20487;-73
2022/09/10 11:47:01;;;;;;;1.30;1.10;;;20.10;98.00;;;;;;5032897;28;20454;-74
2022/09/10 11:49:38;;;;;;;1.60;1.30;;;20.10;98.00;;;;;;5032728;28;20449;-74
2022/09/10 11:52:07;;;;;;;1.30;1.20;;;20.00;98.00;;;;;;5032945;28;20516;-75
2022/09/10 11:54:37;;;;;;;2.07;1.30;;;19.80;98.00;;;;;;5032679;28;20463;-74
2022/09/10 11:57:10;;;;;;;1.27;1.13;;;19.70;98.00;;;;;;5032447;28;20454;-73
2022/09/10 12:00:02;;;;;;;1.43;1.40;;;19.70;98.00;;;;;;5032540;28;20458;-72
2022/09/10 12:03:00;;;;;;;1.30;1.30;;;19.80;98.00;;;;;;5032805;28;20976;-73
2022/09/10 12:05:39;;;;;;;1.50;1.20;;;20.10;98.00;;;;;;5012488;28;21065;-73
2022/09/10 12:08:19;;;;;;;1.30;1.10;;;21.20;98.00;;;;;;5032866;28;20475;-72
2022/09/10 12:11:00;;;;;;;2.00;1.37;;;21.50;98.00;;;;;;5033216;28;20469;-77
2022/09/10 12:13:27;;;;;;;1.40;1.30;;;21.30;98.00;;;;;;5034169;28;20504;-76
2022/09/10 12:15:58;;;;;;;1.80;1.70;;;21.10;98.00;;;;;;5033084;28;20835;-73
2022/09/10 12:18:36;;;;;;;2.70;1.80;;;20.90;98.00;;;;;;5033747;28;20466;-74
2022/09/10 12:21:08;;;;;;;6.93;2.73;;;20.60;98.00;;;;;;5033236;28;20504;-74
2022/09/10 12:23:39;;;;;;;2.23;1.47;;;20.50;98.00;;;;;;5034230;28;20901;-74
2022/09/10 12:26:11;;;;;;;4.40;1.50;;;20.10;98.00;;;;;;5032781;28;20446;-74
2022/09/10 12:29:01;;;;;;;2.03;1.37;;;20.00;98.00;;;;;;5031757;28;20460;-74
2022/09/10 12:32:07;;;;;;;1.50;1.40;;;19.90;98.00;;;;;;5032522;28;20455;-72
2022/09/10 12:34:35;;;;;;;1.33;1.30;;;19.90;98.00;;;;;;5031765;28;20450;-72
2022/09/10 12:37:22;;;;;;;2.00;1.50;;;19.70;98.00;;;;;;5032326;28;20529;-72
2022/09/10 12:40:43;;;;;;;1.40;1.33;;;19.80;98.00;;;;;;5032260;28;20455;-76
2022/09/10 12:43:49;;;;;;;1.77;1.27;;;19.70;98.00;;;;;;5031068;28;20468;-76
2022/09/10 12:46:18;;;;;;;1.50;1.43;;;19.60;98.00;;;;;;4996175;28;20471;-77
2022/09/10 12:48:50;;;;;;;1.93;1.20;;;20.00;98.00;;;;;;5032580;28;20459;-75
2022/09/10 12:51:31;;;;;;;1.30;1.20;;;20.80;98.00;;;;;;5032964;28;20467;-73
2022/09/10 12:54:21;;;;;;;2.43;1.37;;;21.00;98.00;;;;;;5032889;28;21043;-73
2022/09/10 12:57:13;;;;;;;1.70;1.30;;;21.10;98.00;;;;;;5013838;28;20463;-74
2022/09/10 13:00:04;;;;;;;1.50;1.40;;;20.80;98.00;;;;;;5037556;28;20454;-77
2022/09/10 13:02:36;;;;;;;3.20;1.40;;;20.50;98.00;;;;;;5031673;28;20462;-76
2022/09/10 13:05:06;;;;;;;1.60;1.30;;;20.40;98.00;;;;;;5032874;28;20487;-77
2022/09/10 13:07:39;;;;;;;1.40;1.30;;;20.40;98.00;;;;;;5033509;28;20469;-78
2022/09/10 13:10:20;;;;;;;1.30;1.20;;;20.50;98.00;;;;;;5033761;28;20457;-77
2022/09/10 13:12:51;;;;;;;2.03;1.60;;;20.50;98.00;;;;;;5011812;28;20462;-76
2022/09/10 13:15:23;;;;;;;1.50;1.30;;;20.50;98.00;;;;;;5028635;28;20473;-77